sensor_id;sensor_type;location;lat;lon;timestamp;temperature;humidity
7214;DHT22;3648;50.614;13.830;2023-03-31T00:01:14;7.30;1.00
7214;DHT22;3648;50.614;13.830;2023-03-31T00:03:41;7.30;1.00
7214;DHT22;3648;50.614;13.830;2023-03-31T00:06:10;7.30;1.00
7214;DHT22;3648;50.614;13.830;2023-03-31T00:08:42;7.30;1.00
7214;DHT22;3648;50.614;13.830;2023-03-31T00:11:09;7.30;1.00
7214;DHT22;3648;50.614;13.830;2023-03-31T00:13:37;7.30;1.00
7214;DHT22;3648;50.614;13.830;2023-03-31T00:16:07;7.30;1.00
7214;DHT22;3648;50.614;13.830;2023-03-31T00:18:35;7.30;1.00
7214;DHT22;3648;50.614;13.830;2023-03-31T00:21:07;7.30;1.00
7214;DHT22;3648;50.614;13.830;2023-03-31T00:23:34;7.40;1.00
7214;DHT22;3648;50.614;13.830;2023-03-31T00:26:01;7.40;1.00
7214;DHT22;3648;50.614;13.830;2023-03-31T00:28:28;7.40;1.00
7214;DHT22;3648;50.614;13.830;2023-03-31T00:30:59;7.40;1.00
7214;DHT22;3648;50.614;13.830;2023-03-31T00:33:28;7.40;1.00
7214;DHT22;3648;50.614;13.830;2023-03-31T00:35:55;7.40;1.00
7214;DHT22;3648;50.614;13.830;2023-03-31T00:38:26;7.40;1.00
7214;DHT22;3648;50.614;13.830;2023-03-31T00:40:53;7.40;1.00
7214;DHT22;3648;50.614;13.830;2023-03-31T00:43:28;7.40;1.00
7214;DHT22;3648;50.614;13.830;2023-03-31T00:46:02;7.40;1.00
7214;DHT22;3648;50.614;13.830;2023-03-31T00:48:34;7.40;1.00
7214;DHT22;3648;50.614;13.830;2023-03-31T00:51:04;7.40;1.00
7214;DHT22;3648;50.614;13.830;2023-03-31T00:53:33;7.30;1.00
7214;DHT22;3648;50.614;13.830;2023-03-31T00:56:05;7.30;1.00
7214;DHT22;3648;50.614;13.830;2023-03-31T00:58:34;7.30;1.00
7214;DHT22;3648;50.614;13.830;2023-03-31T01:01:09;7.20;1.00
7214;DHT22;3648;50.614;13.830;2023-03-31T01:03:40;7.20;1.00
7214;DHT22;3648;50.614;13.830;2023-03-31T01:06:12;7.20;1.00
7214;DHT22;3648;50.614;13.830;2023-03-31T01:08:42;7.20;1.00
7214;DHT22;3648;50.614;13.830;2023-03-31T01:11:13;7.10;1.00
7214;DHT22;3648;50.614;13.830;2023-03-31T01:13:41;7.10;1.00
7214;DHT22;3648;50.614;13.830;2023-03-31T01:16:10;7.00;1.00
7214;DHT22;3648;50.614;13.830;2023-03-31T01:18:37;7.00;1.00
7214;DHT22;3648;50.614;13.830;2023-03-31T01:21:32;7.00;1.00
7214;DHT22;3648;50.614;13.830;2023-03-31T01:24:41;6.90;1.00
7214;DHT22;3648;50.614;13.830;2023-03-31T01:27:49;6.90;1.00
7214;DHT22;3648;50.614;13.830;2023-03-31T01:30:57;6.80;1.00
7214;DHT22;3648;50.614;13.830;2023-03-31T01:33:57;6.80;1.00
7214;DHT22;3648;50.614;13.830;2023-03-31T01:36:49;6.70;1.00
7214;DHT22;3648;50.614;13.830;2023-03-31T01:39:51;6.70;1.00
7214;DHT22;3648;50.614;13.830;2023-03-31T01:42:30;6.70;1.00
7214;DHT22;3648;50.614;13.830;2023-03-31T01:45:06;6.70;1.00
7214;DHT22;3648;50.614;13.830;2023-03-31T01:47:40;6.70;1.00
7214;DHT22;3648;50.614;13.830;2023-03-31T01:50:17;6.70;1.00
7214;DHT22;3648;50.614;13.830;2023-03-31T01:52:52;6.70;1.00
7214;DHT22;3648;50.614;13.830;2023-03-31T01:55:25;6.60;1.00
7214;DHT22;3648;50.614;13.830;2023-03-31T01:57:58;6.60;1.00
7214;DHT22;3648;50.614;13.830;2023-03-31T02:00:28;6.60;1.00
7214;DHT22;3648;50.614;13.830;2023-03-31T02:03:03;6.60;1.00
7214;DHT22;3648;50.614;13.830;2023-03-31T02:05:35;6.60;1.00
7214;DHT22;3648;50.614;13.830;2023-03-31T02:08:06;6.50;1.00
7214;DHT22;3648;50.614;13.830;2023-03-31T02:10:36;6.50;1.00
7214;DHT22;3648;50.614;13.830;2023-03-31T02:13:06;6.50;1.00
7214;DHT22;3648;50.614;13.830;2023-03-31T02:15:38;6.40;1.00
7214;DHT22;3648;50.614;13.830;2023-03-31T02:18:10;6.40;1.00
7214;DHT22;3648;50.614;13.830;2023-03-31T02:20:38;6.30;1.00
7214;DHT22;3648;50.614;13.830;2023-03-31T02:23:07;6.30;1.00
7214;DHT22;3648;50.614;13.830;2023-03-31T02:25:40;6.30;1.00
7214;DHT22;3648;50.614;13.830;2023-03-31T02:28:13;6.30;1.00
7214;DHT22;3648;50.614;13.830;2023-03-31T02:30:49;6.30;1.00
7214;DHT22;3648;50.614;13.830;2023-03-31T02:33:18;6.30;1.00
7214;DHT22;3648;50.614;13.830;2023-03-31T02:35:45;6.20;1.00
7214;DHT22;3648;50.614;13.830;2023-03-31T02:38:13;6.20;1.00
7214;DHT22;3648;50.614;13.830;2023-03-31T02:40:41;6.20;1.00
7214;DHT22;3648;50.614;13.830;2023-03-31T02:43:09;6.20;1.00
7214;DHT22;3648;50.614;13.830;2023-03-31T02:45:39;6.20;1.00
7214;DHT22;3648;50.614;13.830;2023-03-31T02:48:10;6.20;1.00
7214;DHT22;3648;50.614;13.830;2023-03-31T02:53:38;6.20;1.00
7214;DHT22;3648;50.614;13.830;2023-03-31T02:56:23;6.20;1.00
7214;DHT22;3648;50.614;13.830;2023-03-31T02:59:05;6.20;1.00
7214;DHT22;3648;50.614;13.830;2023-03-31T03:01:51;6.20;1.00
7214;DHT22;3648;50.614;13.830;2023-03-31T03:04:35;6.20;1.00
7214;DHT22;3648;50.614;13.830;2023-03-31T03:07:12;6.10;1.00
7214;DHT22;3648;50.614;13.830;2023-03-31T03:09:51;6.20;1.00
7214;DHT22;3648;50.614;13.830;2023-03-31T03:12:25;6.20;1.00
7214;DHT22;3648;50.614;13.830;2023-03-31T03:14:58;6.20;1.00
7214;DHT22;3648;50.614;13.830;2023-03-31T03:17:31;6.20;1.00
7214;DHT22;3648;50.614;13.830;2023-03-31T03:20:00;6.20;1.00
7214;DHT22;3648;50.614;13.830;2023-03-31T03:22:28;6.20;1.00
7214;DHT22;3648;50.614;13.830;2023-03-31T03:24:55;6.20;1.00
7214;DHT22;3648;50.614;13.830;2023-03-31T03:27:24;6.20;1.00
7214;DHT22;3648;50.614;13.830;2023-03-31T03:29:51;6.20;1.00
7214;DHT22;3648;50.614;13.830;2023-03-31T03:32:18;6.20;1.00
7214;DHT22;3648;50.614;13.830;2023-03-31T03:34:45;6.30;1.00
7214;DHT22;3648;50.614;13.830;2023-03-31T03:37:12;6.30;1.00
7214;DHT22;3648;50.614;13.830;2023-03-31T03:39:39;6.30;1.00
7214;DHT22;3648;50.614;13.830;2023-03-31T03:42:08;6.30;1.00
7214;DHT22;3648;50.614;13.830;2023-03-31T03:44:37;6.30;1.00
7214;DHT22;3648;50.614;13.830;2023-03-31T03:47:04;6.30;1.00
7214;DHT22;3648;50.614;13.830;2023-03-31T03:49:31;6.30;1.00
7214;DHT22;3648;50.614;13.830;2023-03-31T03:51:58;6.30;1.00
7214;DHT22;3648;50.614;13.830;2023-03-31T03:54:25;6.20;1.00
7214;DHT22;3648;50.614;13.830;2023-03-31T03:56:52;6.20;1.00
7214;DHT22;3648;50.614;13.830;2023-03-31T03:59:19;6.20;1.00
7214;DHT22;3648;50.614;13.830;2023-03-31T04:01:49;6.20;1.00
7214;DHT22;3648;50.614;13.830;2023-03-31T04:04:17;6.30;1.00
7214;DHT22;3648;50.614;13.830;2023-03-31T04:06:45;6.20;1.00
7214;DHT22;3648;50.614;13.830;2023-03-31T04:09:12;6.30;1.00
7214;DHT22;3648;50.614;13.830;2023-03-31T04:11:39;6.30;1.00
7214;DHT22;3648;50.614;13.830;2023-03-31T04:14:05;6.30;1.00
7214;DHT22;3648;50.614;13.830;2023-03-31T04:16:33;6.30;1.00
7214;DHT22;3648;50.614;13.830;2023-03-31T04:19:01;6.30;1.00
7214;DHT22;3648;50.614;13.830;2023-03-31T04:21:30;6.30;1.00
7214;DHT22;3648;50.614;13.830;2023-03-31T04:24:00;6.20;1.00
7214;DHT22;3648;50.614;13.830;2023-03-31T04:26:31;6.20;1.00
7214;DHT22;3648;50.614;13.830;2023-03-31T04:29:04;6.10;1.00
7214;DHT22;3648;50.614;13.830;2023-03-31T04:31:32;6.10;1.00
7214;DHT22;3648;50.614;13.830;2023-03-31T04:34:04;6.10;1.00
7214;DHT22;3648;50.614;13.830;2023-03-31T04:36:38;6.10;1.00
7214;DHT22;3648;50.614;13.830;2023-03-31T04:39:07;6.10;1.00
7214;DHT22;3648;50.614;13.830;2023-03-31T04:41:36;6.00;1.00
7214;DHT22;3648;50.614;13.830;2023-03-31T04:44:03;6.00;1.00
7214;DHT22;3648;50.614;13.830;2023-03-31T04:46:31;6.00;1.00
7214;DHT22;3648;50.614;13.830;2023-03-31T04:48:58;6.00;1.00
7214;DHT22;3648;50.614;13.830;2023-03-31T04:51:27;6.00;1.00
7214;DHT22;3648;50.614;13.830;2023-03-31T04:53:55;6.00;1.00
7214;DHT22;3648;50.614;13.830;2023-03-31T04:56:22;6.00;1.00
7214;DHT22;3648;50.614;13.830;2023-03-31T04:58:49;6.00;1.00
7214;DHT22;3648;50.614;13.830;2023-03-31T05:01:15;6.00;1.00
7214;DHT22;3648;50.614;13.830;2023-03-31T05:03:44;6.00;1.00
7214;DHT22;3648;50.614;13.830;2023-03-31T05:06:12;6.00;1.00
7214;DHT22;3648;50.614;13.830;2023-03-31T05:08:41;6.10;1.00
7214;DHT22;3648;50.614;13.830;2023-03-31T05:11:08;6.10;1.00
7214;DHT22;3648;50.614;13.830;2023-03-31T05:13:35;6.10;1.00
7214;DHT22;3648;50.614;13.830;2023-03-31T05:16:06;6.10;1.00
7214;DHT22;3648;50.614;13.830;2023-03-31T05:18:34;6.10;1.00
7214;DHT22;3648;50.614;13.830;2023-03-31T05:21:11;6.20;1.00
7214;DHT22;3648;50.614;13.830;2023-03-31T05:23:38;6.20;1.00
7214;DHT22;3648;50.614;13.830;2023-03-31T05:26:07;6.20;1.00
7214;DHT22;3648;50.614;13.830;2023-03-31T05:28:35;6.30;1.00
7214;DHT22;3648;50.614;13.830;2023-03-31T05:31:03;6.30;1.00
7214;DHT22;3648;50.614;13.830;2023-03-31T05:33:31;6.30;1.00
7214;DHT22;3648;50.614;13.830;2023-03-31T05:35:58;6.40;1.00
7214;DHT22;3648;50.614;13.830;2023-03-31T05:38:25;6.40;1.00
7214;DHT22;3648;50.614;13.830;2023-03-31T05:40:56;6.50;1.00
7214;DHT22;3648;50.614;13.830;2023-03-31T05:43:24;6.50;1.00
7214;DHT22;3648;50.614;13.830;2023-03-31T05:45:51;6.60;1.00
7214;DHT22;3648;50.614;13.830;2023-03-31T05:48:18;6.70;1.00
7214;DHT22;3648;50.614;13.830;2023-03-31T05:50:46;6.70;1.00
7214;DHT22;3648;50.614;13.830;2023-03-31T05:53:13;6.80;1.00
7214;DHT22;3648;50.614;13.830;2023-03-31T05:55:40;6.90;1.00
7214;DHT22;3648;50.614;13.830;2023-03-31T05:58:07;6.90;1.00
7214;DHT22;3648;50.614;13.830;2023-03-31T06:00:35;7.00;1.00
7214;DHT22;3648;50.614;13.830;2023-03-31T06:03:02;7.10;1.00
7214;DHT22;3648;50.614;13.830;2023-03-31T06:05:32;7.20;1.00
7214;DHT22;3648;50.614;13.830;2023-03-31T06:07:59;7.40;1.00
7214;DHT22;3648;50.614;13.830;2023-03-31T06:10:26;7.60;1.00
7214;DHT22;3648;50.614;13.830;2023-03-31T06:12:53;7.70;1.00
7214;DHT22;3648;50.614;13.830;2023-03-31T06:15:20;7.90;1.00
7214;DHT22;3648;50.614;13.830;2023-03-31T06:17:48;8.20;1.00
7214;DHT22;3648;50.614;13.830;2023-03-31T06:20:15;8.40;1.00
7214;DHT22;3648;50.614;13.830;2023-03-31T06:22:42;8.70;1.00
7214;DHT22;3648;50.614;13.830;2023-03-31T06:25:09;8.90;1.00
7214;DHT22;3648;50.614;13.830;2023-03-31T06:27:36;9.00;1.00
7214;DHT22;3648;50.614;13.830;2023-03-31T06:30:03;9.30;1.00
7214;DHT22;3648;50.614;13.830;2023-03-31T06:32:30;9.40;1.00
7214;DHT22;3648;50.614;13.830;2023-03-31T06:34:58;9.60;1.00
7214;DHT22;3648;50.614;13.830;2023-03-31T06:37:25;9.80;1.00
7214;DHT22;3648;50.614;13.830;2023-03-31T06:39:52;9.80;1.00
7214;DHT22;3648;50.614;13.830;2023-03-31T06:42:20;9.80;1.00
7214;DHT22;3648;50.614;13.830;2023-03-31T06:44:47;9.70;1.00
7214;DHT22;3648;50.614;13.830;2023-03-31T06:47:14;9.70;1.00
7214;DHT22;3648;50.614;13.830;2023-03-31T06:49:40;9.70;1.00
7214;DHT22;3648;50.614;13.830;2023-03-31T06:52:09;9.70;1.00
7214;DHT22;3648;50.614;13.830;2023-03-31T06:54:36;9.70;1.00
7214;DHT22;3648;50.614;13.830;2023-03-31T06:57:02;9.80;1.00
7214;DHT22;3648;50.614;13.830;2023-03-31T06:59:29;9.80;1.00
7214;DHT22;3648;50.614;13.830;2023-03-31T07:01:56;9.80;1.00
7214;DHT22;3648;50.614;13.830;2023-03-31T07:04:23;9.80;1.00
7214;DHT22;3648;50.614;13.830;2023-03-31T07:06:50;9.80;1.00
7214;DHT22;3648;50.614;13.830;2023-03-31T07:09:19;9.80;1.00
7214;DHT22;3648;50.614;13.830;2023-03-31T07:11:48;9.80;1.00
7214;DHT22;3648;50.614;13.830;2023-03-31T07:14:15;9.90;1.00
7214;DHT22;3648;50.614;13.830;2023-03-31T07:16:42;9.90;1.00
7214;DHT22;3648;50.614;13.830;2023-03-31T07:32:39;10.10;1.00
7214;DHT22;3648;50.614;13.830;2023-03-31T07:35:09;10.10;1.00
7214;DHT22;3648;50.614;13.830;2023-03-31T07:37:38;10.20;1.00
7214;DHT22;3648;50.614;13.830;2023-03-31T07:40:07;10.20;1.00
7214;DHT22;3648;50.614;13.830;2023-03-31T07:42:35;10.20;1.00
7214;DHT22;3648;50.614;13.830;2023-03-31T07:45:05;10.20;1.00
7214;DHT22;3648;50.614;13.830;2023-03-31T07:47:34;10.20;1.00
7214;DHT22;3648;50.614;13.830;2023-03-31T07:50:06;10.30;1.00
7214;DHT22;3648;50.614;13.830;2023-03-31T07:52:35;10.30;1.00
7214;DHT22;3648;50.614;13.830;2023-03-31T07:55:03;10.40;1.00
7214;DHT22;3648;50.614;13.830;2023-03-31T07:57:32;10.40;1.00
7214;DHT22;3648;50.614;13.830;2023-03-31T08:00:00;10.50;1.00
7214;DHT22;3648;50.614;13.830;2023-03-31T08:02:32;10.60;1.00
7214;DHT22;3648;50.614;13.830;2023-03-31T08:05:01;10.60;1.00
7214;DHT22;3648;50.614;13.830;2023-03-31T08:07:32;10.70;1.00
7214;DHT22;3648;50.614;13.830;2023-03-31T08:10:02;10.80;1.00
7214;DHT22;3648;50.614;13.830;2023-03-31T08:12:30;11.00;1.00
7214;DHT22;3648;50.614;13.830;2023-03-31T08:14:58;11.20;1.00
7214;DHT22;3648;50.614;13.830;2023-03-31T08:17:27;11.30;1.00
7214;DHT22;3648;50.614;13.830;2023-03-31T08:19:55;11.40;99.90
7214;DHT22;3648;50.614;13.830;2023-03-31T08:22:23;11.40;99.90
7214;DHT22;3648;50.614;13.830;2023-03-31T08:24:53;11.40;99.90
7214;DHT22;3648;50.614;13.830;2023-03-31T08:27:21;11.40;99.90
7214;DHT22;3648;50.614;13.830;2023-03-31T08:29:51;11.40;99.90
7214;DHT22;3648;50.614;13.830;2023-03-31T08:32:21;11.30;99.90
7214;DHT22;3648;50.614;13.830;2023-03-31T08:34:50;11.30;99.90
7214;DHT22;3648;50.614;13.830;2023-03-31T08:37:18;11.30;99.90
7214;DHT22;3648;50.614;13.830;2023-03-31T08:39:45;11.20;99.90
7214;DHT22;3648;50.614;13.830;2023-03-31T08:42:16;11.20;99.90
7214;DHT22;3648;50.614;13.830;2023-03-31T08:44:56;11.20;99.90
7214;DHT22;3648;50.614;13.830;2023-03-31T08:47:25;11.20;99.90
7214;DHT22;3648;50.614;13.830;2023-03-31T08:49:55;11.10;99.90
7214;DHT22;3648;50.614;13.830;2023-03-31T08:52:26;11.10;99.90
7214;DHT22;3648;50.614;13.830;2023-03-31T08:54:58;11.10;99.90
7214;DHT22;3648;50.614;13.830;2023-03-31T08:57:32;11.10;99.90
7214;DHT22;3648;50.614;13.830;2023-03-31T09:00:03;11.00;1.00
7214;DHT22;3648;50.614;13.830;2023-03-31T09:02:36;11.00;99.90
7214;DHT22;3648;50.614;13.830;2023-03-31T09:05:34;11.00;99.90
7214;DHT22;3648;50.614;13.830;2023-03-31T09:08:10;11.00;99.90
7214;DHT22;3648;50.614;13.830;2023-03-31T09:10:43;10.90;99.90
7214;DHT22;3648;50.614;13.830;2023-03-31T09:13:34;11.00;99.90
7214;DHT22;3648;50.614;13.830;2023-03-31T09:16:09;10.90;1.00
7214;DHT22;3648;50.614;13.830;2023-03-31T09:18:40;11.00;1.00
7214;DHT22;3648;50.614;13.830;2023-03-31T09:21:15;11.00;1.00
7214;DHT22;3648;50.614;13.830;2023-03-31T09:23:46;11.00;1.00
7214;DHT22;3648;50.614;13.830;2023-03-31T09:26:22;11.10;1.00
7214;DHT22;3648;50.614;13.830;2023-03-31T09:28:53;11.10;1.00
7214;DHT22;3648;50.614;13.830;2023-03-31T09:31:23;11.00;1.00
7214;DHT22;3648;50.614;13.830;2023-03-31T09:33:53;11.00;1.00
7214;DHT22;3648;50.614;13.830;2023-03-31T09:36:21;11.20;1.00
7214;DHT22;3648;50.614;13.830;2023-03-31T09:38:48;11.20;1.00
7214;DHT22;3648;50.614;13.830;2023-03-31T09:41:16;11.10;1.00
7214;DHT22;3648;50.614;13.830;2023-03-31T09:43:45;11.10;1.00
7214;DHT22;3648;50.614;13.830;2023-03-31T09:46:18;11.10;1.00
7214;DHT22;3648;50.614;13.830;2023-03-31T09:48:54;11.00;1.00
7214;DHT22;3648;50.614;13.830;2023-03-31T09:51:26;10.90;1.00
7214;DHT22;3648;50.614;13.830;2023-03-31T09:53:57;10.90;1.00
7214;DHT22;3648;50.614;13.830;2023-03-31T09:56:48;10.80;1.00
7214;DHT22;3648;50.614;13.830;2023-03-31T09:59:19;10.80;1.00
7214;DHT22;3648;50.614;13.830;2023-03-31T10:01:50;10.70;1.00
7214;DHT22;3648;50.614;13.830;2023-03-31T10:04:21;10.70;1.00
7214;DHT22;3648;50.614;13.830;2023-03-31T10:06:49;10.60;1.00
7214;DHT22;3648;50.614;13.830;2023-03-31T10:09:18;10.60;1.00
7214;DHT22;3648;50.614;13.830;2023-03-31T10:11:58;10.60;1.00
7214;DHT22;3648;50.614;13.830;2023-03-31T10:14:39;10.50;1.00
7214;DHT22;3648;50.614;13.830;2023-03-31T10:17:13;10.50;1.00
7214;DHT22;3648;50.614;13.830;2023-03-31T10:19:47;10.50;1.00
7214;DHT22;3648;50.614;13.830;2023-03-31T10:22:22;10.40;1.00
7214;DHT22;3648;50.614;13.830;2023-03-31T10:24:52;10.40;1.00
7214;DHT22;3648;50.614;13.830;2023-03-31T10:27:21;10.30;1.00
7214;DHT22;3648;50.614;13.830;2023-03-31T10:29:52;10.40;1.00
7214;DHT22;3648;50.614;13.830;2023-03-31T10:32:24;10.30;1.00
7214;DHT22;3648;50.614;13.830;2023-03-31T10:34:54;10.30;1.00
7214;DHT22;3648;50.614;13.830;2023-03-31T10:37:23;10.30;1.00
7214;DHT22;3648;50.614;13.830;2023-03-31T10:39:56;10.40;1.00
7214;DHT22;3648;50.614;13.830;2023-03-31T10:42:24;10.40;1.00
7214;DHT22;3648;50.614;13.830;2023-03-31T10:45:09;10.40;1.00
7214;DHT22;3648;50.614;13.830;2023-03-31T10:47:39;10.40;1.00
7214;DHT22;3648;50.614;13.830;2023-03-31T10:50:13;10.40;1.00
7214;DHT22;3648;50.614;13.830;2023-03-31T10:52:43;10.50;1.00
7214;DHT22;3648;50.614;13.830;2023-03-31T10:55:13;10.50;1.00
7214;DHT22;3648;50.614;13.830;2023-03-31T10:57:45;10.50;1.00
7214;DHT22;3648;50.614;13.830;2023-03-31T11:00:23;10.50;1.00
7214;DHT22;3648;50.614;13.830;2023-03-31T11:05:53;10.60;1.00
7214;DHT22;3648;50.614;13.830;2023-03-31T11:08:39;10.50;1.00
7214;DHT22;3648;50.614;13.830;2023-03-31T11:11:34;10.60;1.00
7214;DHT22;3648;50.614;13.830;2023-03-31T11:14:10;10.50;1.00
7214;DHT22;3648;50.614;13.830;2023-03-31T11:16:48;10.40;1.00
7214;DHT22;3648;50.614;13.830;2023-03-31T11:19:30;10.40;1.00
7214;DHT22;3648;50.614;13.830;2023-03-31T11:22:06;10.40;1.00
7214;DHT22;3648;50.614;13.830;2023-03-31T11:24:59;10.30;1.00
7214;DHT22;3648;50.614;13.830;2023-03-31T11:27:40;10.30;1.00
7214;DHT22;3648;50.614;13.830;2023-03-31T11:30:18;10.20;1.00
7214;DHT22;3648;50.614;13.830;2023-03-31T11:32:55;10.20;1.00
7214;DHT22;3648;50.614;13.830;2023-03-31T11:35:44;10.20;1.00
7214;DHT22;3648;50.614;13.830;2023-03-31T11:38:29;10.10;1.00
7214;DHT22;3648;50.614;13.830;2023-03-31T11:41:02;10.10;1.00
7214;DHT22;3648;50.614;13.830;2023-03-31T11:43:33;10.20;1.00
7214;DHT22;3648;50.614;13.830;2023-03-31T11:46:06;10.20;1.00
7214;DHT22;3648;50.614;13.830;2023-03-31T11:48:38;10.10;1.00
7214;DHT22;3648;50.614;13.830;2023-03-31T11:51:13;10.10;1.00
7214;DHT22;3648;50.614;13.830;2023-03-31T11:53:42;10.10;1.00
7214;DHT22;3648;50.614;13.830;2023-03-31T11:56:11;10.10;1.00
7214;DHT22;3648;50.614;13.830;2023-03-31T11:58:43;10.10;1.00
7214;DHT22;3648;50.614;13.830;2023-03-31T12:01:16;10.10;1.00
7214;DHT22;3648;50.614;13.830;2023-03-31T12:03:51;10.10;1.00
7214;DHT22;3648;50.614;13.830;2023-03-31T12:06:24;10.10;1.00
7214;DHT22;3648;50.614;13.830;2023-03-31T12:09:01;10.20;1.00
7214;DHT22;3648;50.614;13.830;2023-03-31T12:11:35;10.20;1.00
7214;DHT22;3648;50.614;13.830;2023-03-31T12:16:54;10.20;1.00
7214;DHT22;3648;50.614;13.830;2023-03-31T12:19:27;10.20;1.00
7214;DHT22;3648;50.614;13.830;2023-03-31T12:22:03;10.30;1.00
7214;DHT22;3648;50.614;13.830;2023-03-31T12:24:33;10.30;1.00
7214;DHT22;3648;50.614;13.830;2023-03-31T12:27:06;10.30;1.00
7214;DHT22;3648;50.614;13.830;2023-03-31T12:29:41;10.30;1.00
7214;DHT22;3648;50.614;13.830;2023-03-31T12:32:13;10.30;1.00
7214;DHT22;3648;50.614;13.830;2023-03-31T12:34:46;10.30;1.00
7214;DHT22;3648;50.614;13.830;2023-03-31T12:37:56;10.30;1.00
7214;DHT22;3648;50.614;13.830;2023-03-31T12:40:36;10.30;1.00
7214;DHT22;3648;50.614;13.830;2023-03-31T12:43:23;10.30;1.00
7214;DHT22;3648;50.614;13.830;2023-03-31T12:46:03;10.30;1.00
7214;DHT22;3648;50.614;13.830;2023-03-31T12:49:05;10.30;1.00
7214;DHT22;3648;50.614;13.830;2023-03-31T12:51:57;10.20;1.00
7214;DHT22;3648;50.614;13.830;2023-03-31T12:57:20;10.20;1.00
7214;DHT22;3648;50.614;13.830;2023-03-31T13:00:19;10.20;1.00
7214;DHT22;3648;50.614;13.830;2023-03-31T13:02:48;10.20;1.00
7214;DHT22;3648;50.614;13.830;2023-03-31T13:05:43;10.10;1.00
7214;DHT22;3648;50.614;13.830;2023-03-31T13:08:50;10.10;1.00
7214;DHT22;3648;50.614;13.830;2023-03-31T13:11:21;10.10;1.00
7214;DHT22;3648;50.614;13.830;2023-03-31T13:13:58;10.20;1.00
7214;DHT22;3648;50.614;13.830;2023-03-31T13:16:26;10.40;1.00
7214;DHT22;3648;50.614;13.830;2023-03-31T13:18:54;10.50;1.00
7214;DHT22;3648;50.614;13.830;2023-03-31T13:21:22;10.60;1.00
7214;DHT22;3648;50.614;13.830;2023-03-31T13:23:50;10.70;1.00
7214;DHT22;3648;50.614;13.830;2023-03-31T13:26:40;10.80;1.00
7214;DHT22;3648;50.614;13.830;2023-03-31T13:29:21;10.90;1.00
7214;DHT22;3648;50.614;13.830;2023-03-31T13:32:21;10.90;1.00
7214;DHT22;3648;50.614;13.830;2023-03-31T13:35:01;11.10;1.00
7214;DHT22;3648;50.614;13.830;2023-03-31T13:37:41;11.30;1.00
7214;DHT22;3648;50.614;13.830;2023-03-31T13:46:47;11.70;1.00
7214;DHT22;3648;50.614;13.830;2023-03-31T13:49:39;11.70;1.00
7214;DHT22;3648;50.614;13.830;2023-03-31T13:52:12;11.90;1.00
7214;DHT22;3648;50.614;13.830;2023-03-31T13:58:19;12.10;1.00
7214;DHT22;3648;50.614;13.830;2023-03-31T14:00:59;12.00;1.00
7214;DHT22;3648;50.614;13.830;2023-03-31T14:03:36;12.00;1.00
7214;DHT22;3648;50.614;13.830;2023-03-31T14:06:05;11.90;1.00
7214;DHT22;3648;50.614;13.830;2023-03-31T14:08:46;11.80;1.00
7214;DHT22;3648;50.614;13.830;2023-03-31T14:11:19;11.90;1.00
7214;DHT22;3648;50.614;13.830;2023-03-31T14:13:58;11.90;1.00
7214;DHT22;3648;50.614;13.830;2023-03-31T14:16:28;12.00;1.00
7214;DHT22;3648;50.614;13.830;2023-03-31T14:19:05;12.00;1.00
7214;DHT22;3648;50.614;13.830;2023-03-31T14:21:43;11.90;99.90
7214;DHT22;3648;50.614;13.830;2023-03-31T14:24:20;11.90;1.00
7214;DHT22;3648;50.614;13.830;2023-03-31T14:26:57;11.80;1.00
7214;DHT22;3648;50.614;13.830;2023-03-31T14:29:32;11.80;1.00
7214;DHT22;3648;50.614;13.830;2023-03-31T14:32:11;11.90;1.00
7214;DHT22;3648;50.614;13.830;2023-03-31T14:35:02;11.90;1.00
7214;DHT22;3648;50.614;13.830;2023-03-31T14:37:30;11.90;1.00
7214;DHT22;3648;50.614;13.830;2023-03-31T14:39:58;11.90;1.00
7214;DHT22;3648;50.614;13.830;2023-03-31T14:42:32;11.90;1.00
7214;DHT22;3648;50.614;13.830;2023-03-31T14:45:05;12.00;1.00
7214;DHT22;3648;50.614;13.830;2023-03-31T14:47:35;12.10;1.00
7214;DHT22;3648;50.614;13.830;2023-03-31T14:50:10;12.10;1.00
7214;DHT22;3648;50.614;13.830;2023-03-31T14:52:38;12.30;1.00
7214;DHT22;3648;50.614;13.830;2023-03-31T14:55:12;12.40;99.90
7214;DHT22;3648;50.614;13.830;2023-03-31T14:57:39;12.50;99.90
7214;DHT22;3648;50.614;13.830;2023-03-31T15:00:10;12.50;99.90
7214;DHT22;3648;50.614;13.830;2023-03-31T15:02:42;12.60;99.90
7214;DHT22;3648;50.614;13.830;2023-03-31T15:05:20;12.70;99.90
7214;DHT22;3648;50.614;13.830;2023-03-31T15:07:50;12.60;99.90
7214;DHT22;3648;50.614;13.830;2023-03-31T15:10:19;12.60;99.90
7214;DHT22;3648;50.614;13.830;2023-03-31T15:12:47;12.60;99.90
7214;DHT22;3648;50.614;13.830;2023-03-31T15:15:17;12.50;99.90
7214;DHT22;3648;50.614;13.830;2023-03-31T15:17:47;12.50;99.90
7214;DHT22;3648;50.614;13.830;2023-03-31T15:20:25;12.40;99.90
7214;DHT22;3648;50.614;13.830;2023-03-31T15:22:54;12.40;99.90
7214;DHT22;3648;50.614;13.830;2023-03-31T15:25:23;12.30;99.90
7214;DHT22;3648;50.614;13.830;2023-03-31T15:27:56;12.30;99.90
7214;DHT22;3648;50.614;13.830;2023-03-31T15:30:26;12.30;99.90
7214;DHT22;3648;50.614;13.830;2023-03-31T15:32:56;12.30;99.90
7214;DHT22;3648;50.614;13.830;2023-03-31T15:35:26;12.40;99.90
7214;DHT22;3648;50.614;13.830;2023-03-31T15:37:56;12.40;99.90
7214;DHT22;3648;50.614;13.830;2023-03-31T15:40:25;12.40;99.90
7214;DHT22;3648;50.614;13.830;2023-03-31T15:42:55;12.40;99.90
7214;DHT22;3648;50.614;13.830;2023-03-31T15:45:45;12.50;99.90
7214;DHT22;3648;50.614;13.830;2023-03-31T15:48:18;12.50;99.90
7214;DHT22;3648;50.614;13.830;2023-03-31T15:50:46;12.50;99.90
7214;DHT22;3648;50.614;13.830;2023-03-31T15:53:25;12.50;99.90
7214;DHT22;3648;50.614;13.830;2023-03-31T15:55:55;12.50;99.90
7214;DHT22;3648;50.614;13.830;2023-03-31T15:58:45;12.50;99.90
7214;DHT22;3648;50.614;13.830;2023-03-31T16:01:15;12.50;99.90
7214;DHT22;3648;50.614;13.830;2023-03-31T16:03:44;12.50;99.90
7214;DHT22;3648;50.614;13.830;2023-03-31T16:06:19;12.40;99.90
7214;DHT22;3648;50.614;13.830;2023-03-31T16:08:51;12.40;99.90
7214;DHT22;3648;50.614;13.830;2023-03-31T16:11:21;12.40;99.90
7214;DHT22;3648;50.614;13.830;2023-03-31T16:13:52;12.40;99.90
7214;DHT22;3648;50.614;13.830;2023-03-31T16:16:22;12.30;99.90
7214;DHT22;3648;50.614;13.830;2023-03-31T16:18:58;12.20;99.90
7214;DHT22;3648;50.614;13.830;2023-03-31T16:21:34;12.20;99.90
7214;DHT22;3648;50.614;13.830;2023-03-31T16:24:02;12.10;99.90
7214;DHT22;3648;50.614;13.830;2023-03-31T16:26:30;12.10;99.90
7214;DHT22;3648;50.614;13.830;2023-03-31T16:28:59;12.00;99.90
7214;DHT22;3648;50.614;13.830;2023-03-31T16:31:29;11.90;99.90
7214;DHT22;3648;50.614;13.830;2023-03-31T16:34:01;11.90;99.90
7214;DHT22;3648;50.614;13.830;2023-03-31T16:36:28;11.80;99.90
7214;DHT22;3648;50.614;13.830;2023-03-31T16:38:55;11.70;99.90
7214;DHT22;3648;50.614;13.830;2023-03-31T16:41:24;11.70;99.90
7214;DHT22;3648;50.614;13.830;2023-03-31T16:43:51;11.60;99.90
7214;DHT22;3648;50.614;13.830;2023-03-31T16:46:19;11.60;99.90
7214;DHT22;3648;50.614;13.830;2023-03-31T16:48:46;11.50;99.90
7214;DHT22;3648;50.614;13.830;2023-03-31T16:51:15;11.50;99.90
7214;DHT22;3648;50.614;13.830;2023-03-31T16:53:43;11.50;99.90
7214;DHT22;3648;50.614;13.830;2023-03-31T16:56:11;11.40;99.90
7214;DHT22;3648;50.614;13.830;2023-03-31T16:58:39;11.40;99.90
7214;DHT22;3648;50.614;13.830;2023-03-31T17:01:07;11.40;99.90
7214;DHT22;3648;50.614;13.830;2023-03-31T17:03:34;11.30;99.90
7214;DHT22;3648;50.614;13.830;2023-03-31T17:06:04;11.20;99.90
7214;DHT22;3648;50.614;13.830;2023-03-31T17:08:33;11.20;99.90
7214;DHT22;3648;50.614;13.830;2023-03-31T17:11:04;11.10;99.90
7214;DHT22;3648;50.614;13.830;2023-03-31T17:13:32;11.10;99.90